Time;durP1;ratioP1;P1;durP2;ratioP2;P2;SDS_P1;SDS_P2;PMS_P1;PMS_P2;Temp;Humidity;BMP_temperature;BMP_pressure;BME280_temperature;BME280_humidity;BME280_pressure;Samples;Min_cycle;Max_cycle;Signal;HPM_P1;HPM_P2
2022/02/18 00:00:18;;;;;;;21.95;14.48;;;2.50;99.90;;;;;;5093876;28;20484;-81
2022/02/18 00:02:44;;;;;;;20.80;13.32;;;2.50;99.90;;;;;;5107934;28;20092;-82
2022/02/18 00:05:10;;;;;;;16.73;10.18;;;2.50;99.90;;;;;;5115266;28;20023;-82
2022/02/18 00:07:36;;;;;;;22.08;14.32;;;2.50;99.90;;;;;;5115462;28;20385;-81
2022/02/18 00:10:03;;;;;;;12.27;8.98;;;2.50;99.90;;;;;;5104339;28;20031;-82
2022/02/18 00:12:29;;;;;;;21.17;14.20;;;2.50;99.90;;;;;;5094286;28;20027;-81
2022/02/18 00:14:55;;;;;;;21.08;14.63;;;2.50;99.90;;;;;;5094309;28;20032;-83
2022/02/18 00:17:21;;;;;;;17.65;10.40;;;2.50;99.90;;;;;;5094608;28;20024;-81
2022/02/18 00:19:47;;;;;;;23.73;14.57;;;2.50;99.90;;;;;;5094684;28;20047;-81
2022/02/18 00:22:12;;;;;;;14.00;8.90;;;2.50;99.90;;;;;;5094563;28;20026;-82
2022/02/18 00:24:38;;;;;;;18.98;13.63;;;2.50;99.90;;;;;;5094749;28;20043;-82
2022/02/18 00:27:04;;;;;;;20.35;13.35;;;2.50;99.90;;;;;;5094679;28;20030;-82
2022/02/18 00:29:30;;;;;;;21.40;14.38;;;2.50;99.90;;;;;;5094961;28;20490;-82
2022/02/18 00:31:56;;;;;;;20.42;14.18;;;2.50;99.90;;;;;;5095437;28;20026;-82
2022/02/18 00:34:22;;;;;;;22.45;16.58;;;2.50;99.90;;;;;;5094531;28;20530;-83
2022/02/18 00:36:47;;;;;;;19.90;15.25;;;2.50;99.90;;;;;;5094484;28;20020;-82
2022/02/18 00:39:13;;;;;;;20.40;13.82;;;2.60;99.90;;;;;;5094192;28;20039;-82
2022/02/18 00:41:39;;;;;;;21.55;14.32;;;2.60;99.90;;;;;;5094060;28;20016;-83
2022/02/18 00:44:05;;;;;;;18.48;13.52;;;2.60;99.90;;;;;;5092823;28;20123;-82
2022/02/18 00:46:34;;;;;;;20.80;12.80;;;2.60;99.90;;;;;;5094155;28;20063;-82
2022/02/18 00:49:00;;;;;;;19.17;14.15;;;2.60;99.90;;;;;;5094523;28;20031;-82
2022/02/18 00:51:25;;;;;;;20.50;14.70;;;2.60;99.90;;;;;;5095514;28;20024;-84
2022/02/18 00:53:51;;;;;;;22.80;12.05;;;2.60;99.90;;;;;;5096287;28;20043;-81
2022/02/18 00:56:17;;;;;;;15.80;10.82;;;2.60;99.90;;;;;;5093264;28;20501;-83
2022/02/18 00:58:43;;;;;;;19.00;14.27;;;2.60;99.90;;;;;;5094006;28;20063;-82
2022/02/18 01:01:08;;;;;;;19.52;13.55;;;2.60;99.90;;;;;;5092949;28;20063;-83
2022/02/18 01:03:36;;;;;;;20.50;14.45;;;2.60;99.90;;;;;;5116064;28;20077;-82
2022/02/18 01:06:01;;;;;;;20.60;13.25;;;2.60;99.90;;;;;;5117149;28;20026;-83
2022/02/18 01:08:27;;;;;;;19.23;14.80;;;2.60;99.90;;;;;;5114317;28;20106;-83
2022/02/18 01:10:53;;;;;;;16.95;11.82;;;2.60;99.90;;;;;;5095926;28;20547;-82
2022/02/18 01:13:19;;;;;;;21.35;14.07;;;2.70;99.90;;;;;;5093435;28;20388;-80
2022/02/18 01:15:45;;;;;;;17.05;11.43;;;2.70;99.90;;;;;;5093563;28;20099;-84
2022/02/18 01:18:11;;;;;;;14.20;9.65;;;2.70;99.90;;;;;;5092105;28;20483;-81
2022/02/18 01:20:36;;;;;;;19.15;11.20;;;2.70;99.90;;;;;;5092392;28;20028;-81
2022/02/18 01:23:02;;;;;;;13.43;10.02;;;2.70;99.90;;;;;;5092331;28;20050;-82
2022/02/18 01:25:28;;;;;;;21.42;13.80;;;2.70;99.90;;;;;;5094058;28;20160;-81
2022/02/18 01:27:56;;;;;;;17.38;10.05;;;2.70;99.90;;;;;;5094323;28;20021;-80
2022/02/18 01:30:23;;;;;;;;;;;2.80;99.90;;;;;;5095427;28;20020;-82
2022/02/18 01:32:49;;;;;;;18.55;10.55;;;2.70;99.90;;;;;;5097984;28;19908;-80
2022/02/18 01:35:15;;;;;;;14.45;10.98;;;2.70;99.90;;;;;;5098029;28;20115;-81
2022/02/18 01:37:41;;;;;;;16.27;12.45;;;2.70;99.90;;;;;;5093992;28;20440;-83
2022/02/18 01:40:08;;;;;;;17.98;13.75;;;2.70;99.90;;;;;;5092355;28;20469;-82
2022/02/18 01:42:37;;;;;;;15.87;12.00;;;2.80;99.90;;;;;;5093294;28;20026;-82
2022/02/18 01:45:03;;;;;;;22.42;13.15;;;2.80;99.90;;;;;;5095761;28;20245;-83
2022/02/18 01:47:29;;;;;;;19.05;10.73;;;2.80;99.90;;;;;;5108535;28;20034;-83
2022/02/18 01:49:58;;;;;;;18.55;12.63;;;2.80;99.90;;;;;;5103313;28;20047;-82
2022/02/18 01:52:31;;;;;;;18.33;12.38;;;2.80;99.90;;;;;;5094349;28;20028;-82
2022/02/18 01:54:57;;;;;;;17.02;11.90;;;2.80;99.90;;;;;;5094098;28;20029;-82
2022/02/18 01:57:24;;;;;;;14.45;10.93;;;2.80;99.90;;;;;;5093668;28;20091;-81
2022/02/18 01:59:49;;;;;;;17.27;12.75;;;2.80;99.90;;;;;;5093701;28;20386;-82
2022/02/18 02:02:15;;;;;;;19.10;13.35;;;2.90;99.90;;;;;;5092699;28;20028;-84
2022/02/18 02:04:44;;;;;;;19.20;13.48;;;2.80;99.90;;;;;;5092633;28;20124;-82
2022/02/18 02:07:11;;;;;;;17.60;11.80;;;2.80;99.90;;;;;;5092643;28;20016;-82
2022/02/18 02:09:37;;;;;;;14.68;10.90;;;2.90;99.90;;;;;;5091291;28;20024;-81
2022/02/18 02:12:04;;;;;;;19.20;14.00;;;2.80;99.90;;;;;;5092630;28;20388;-82
2022/02/18 02:14:30;;;;;;;17.30;11.20;;;2.90;99.90;;;;;;5092462;28;20056;-82
2022/02/18 02:16:56;;;;;;;12.98;9.63;;;2.90;99.90;;;;;;5092493;28;20024;-83
2022/02/18 02:19:22;;;;;;;10.25;8.27;;;2.80;99.90;;;;;;5092392;28;20073;-81
2022/02/18 02:21:55;;;;;;;19.90;12.93;;;2.80;99.90;;;;;;5091090;28;20031;-82
2022/02/18 02:24:21;;;;;;;16.40;10.68;;;2.80;99.90;;;;;;5092757;28;20032;-81
2022/02/18 02:26:47;;;;;;;13.10;9.80;;;2.80;99.90;;;;;;5091391;28;20126;-83
2022/02/18 02:29:13;;;;;;;18.08;13.02;;;2.80;99.90;;;;;;5092501;28;20099;-83
2022/02/18 02:31:40;;;;;;;16.17;12.52;;;2.80;99.90;;;;;;5094056;28;20032;-82
2022/02/18 02:34:06;;;;;;;13.37;8.47;;;2.80;99.90;;;;;;5093439;28;20036;-82
2022/02/18 02:36:33;;;;;;;19.05;11.80;;;2.90;99.90;;;;;;5092379;28;20027;-80
2022/02/18 02:38:58;;;;;;;9.98;6.60;;;2.80;99.90;;;;;;5092454;28;20035;-82
2022/02/18 02:41:25;;;;;;;13.52;9.68;;;2.80;99.90;;;;;;5091259;28;20024;-82
2022/02/18 02:43:51;;;;;;;13.07;9.75;;;2.80;99.90;;;;;;5092316;28;20498;-83
2022/02/18 02:46:17;;;;;;;13.52;10.70;;;2.80;99.90;;;;;;5092236;28;20117;-83
2022/02/18 02:48:43;;;;;;;15.85;11.02;;;2.80;99.90;;;;;;5092365;28;20028;-82
2022/02/18 02:51:10;;;;;;;16.05;11.85;;;2.80;99.90;;;;;;5091351;28;20043;-82
2022/02/18 02:53:39;;;;;;;17.48;12.02;;;2.80;99.90;;;;;;5093495;28;20438;-83
2022/02/18 02:56:06;;;;;;;16.58;11.57;;;2.80;99.90;;;;;;5091066;28;20111;-82
2022/02/18 02:58:31;;;;;;;14.75;11.43;;;2.90;99.90;;;;;;5092251;28;20099;-82
2022/02/18 03:00:57;;;;;;;14.70;10.50;;;2.90;99.90;;;;;;5092094;28;20540;-82
2022/02/18 03:03:23;;;;;;;11.93;10.05;;;2.90;99.90;;;;;;5109426;28;20016;-81
2022/02/18 03:05:49;;;;;;;16.88;11.43;;;2.80;99.90;;;;;;5111230;28;20502;-82
2022/02/18 03:08:15;;;;;;;15.63;10.07;;;2.90;99.90;;;;;;5111602;28;20012;-80
2022/02/18 03:10:41;;;;;;;17.92;11.30;;;2.80;99.90;;;;;;5092679;28;20060;-82
2022/02/18 03:13:07;;;;;;;16.77;11.50;;;2.80;99.90;;;;;;5094702;28;20081;-83
2022/02/18 03:15:33;;;;;;;13.00;10.10;;;2.80;99.90;;;;;;5095798;28;20441;-83
2022/02/18 03:17:59;;;;;;;16.23;11.23;;;2.80;99.90;;;;;;5095902;28;20062;-83
2022/02/18 03:20:29;;;;;;;16.40;11.65;;;2.80;99.90;;;;;;5096274;28;20024;-83
2022/02/18 03:22:55;;;;;;;16.17;10.90;;;2.80;99.90;;;;;;5096640;28;20024;-83
2022/02/18 03:25:21;;;;;;;14.98;10.90;;;2.90;99.90;;;;;;5102765;28;20085;-83
2022/02/18 03:27:46;;;;;;;11.60;9.63;;;2.90;99.90;;;;;;5104578;28;20084;-82
2022/02/18 03:30:12;;;;;;;15.45;10.70;;;2.90;99.90;;;;;;5095874;28;20031;-83
2022/02/18 03:32:38;;;;;;;13.50;10.93;;;3.00;99.90;;;;;;5095510;28;20024;-84
2022/02/18 03:35:04;;;;;;;16.23;11.52;;;3.00;99.90;;;;;;5094880;28;20481;-82
2022/02/18 03:37:30;;;;;;;14.23;10.23;;;3.00;99.90;;;;;;5095325;28;20027;-82
2022/02/18 03:39:56;;;;;;;10.30;8.25;;;3.00;99.90;;;;;;5095371;28;20393;-83
2022/02/18 03:42:22;;;;;;;12.27;8.50;;;3.00;99.90;;;;;;5095350;28;20028;-80
2022/02/18 03:44:48;;;;;;;13.13;8.07;;;3.00;99.90;;;;;;5095535;28;20032;-82
2022/02/18 03:47:14;;;;;;;15.68;11.75;;;3.00;99.90;;;;;;5094319;28;20059;-81
2022/02/18 03:49:40;;;;;;;14.88;10.77;;;3.00;99.90;;;;;;5095338;28;20020;-81
2022/02/18 03:52:06;;;;;;;20.58;12.00;;;3.00;99.90;;;;;;5095302;28;20016;-82
2022/02/18 03:54:32;;;;;;;16.15;11.55;;;3.00;99.90;;;;;;5095952;28;20108;-80
2022/02/18 03:56:58;;;;;;;18.23;12.88;;;3.10;99.90;;;;;;5103730;28;20062;-80
2022/02/18 03:59:23;;;;;;;11.43;8.98;;;3.10;99.90;;;;;;5102984;28;20078;-80
2022/02/18 04:01:49;;;;;;;14.73;10.52;;;3.10;99.90;;;;;;5100599;28;20032;-79
2022/02/18 04:04:15;;;;;;;17.67;11.55;;;3.10;99.90;;;;;;5099502;28;20020;-81
2022/02/18 04:06:41;;;;;;;16.40;12.63;;;3.10;99.90;;;;;;5097220;28;20020;-82
2022/02/18 04:09:07;;;;;;;16.25;12.70;;;3.10;99.90;;;;;;5096635;28;20050;-79
2022/02/18 04:11:33;;;;;;;16.92;11.13;;;3.10;99.90;;;;;;5096099;28;20103;-81
2022/02/18 04:13:58;;;;;;;15.73;11.75;;;3.10;99.90;;;;;;5096180;28;20477;-81
2022/02/18 04:16:24;;;;;;;17.02;11.43;;;3.10;99.90;;;;;;5094940;28;20095;-81
2022/02/18 04:18:51;;;;;;;18.15;13.35;;;3.00;99.90;;;;;;5093836;28;20034;-82
2022/02/18 04:21:17;;;;;;;16.67;12.82;;;3.00;99.90;;;;;;5094881;28;20019;-81
2022/02/18 04:23:43;;;;;;;16.08;10.32;;;3.10;99.90;;;;;;5094504;28;20063;-81
2022/02/18 04:26:09;;;;;;;16.30;12.35;;;3.10;99.90;;;;;;5094524;28;20028;-80
2022/02/18 04:28:35;;;;;;;16.60;13.13;;;3.00;99.90;;;;;;5094360;28;20027;-81
2022/02/18 04:31:00;;;;;;;19.23;14.18;;;3.00;99.90;;;;;;5095297;28;20485;-81
2022/02/18 04:33:26;;;;;;;19.98;15.18;;;3.00;99.90;;;;;;5093726;28;20029;-82
2022/02/18 04:35:52;;;;;;;16.38;10.88;;;3.10;99.90;;;;;;5094501;28;20019;-82
2022/02/18 04:38:18;;;;;;;21.65;14.25;;;3.10;99.90;;;;;;5093493;28;20020;-82
2022/02/18 04:40:44;;;;;;;21.02;12.57;;;3.00;99.90;;;;;;5092952;28;20499;-81
2022/02/18 04:43:09;;;;;;;18.88;12.32;;;3.00;99.90;;;;;;5093211;28;20081;-82
2022/02/18 04:45:35;;;;;;;18.90;13.15;;;3.00;99.90;;;;;;5094552;28;20098;-82
2022/02/18 04:48:01;;;;;;;19.65;13.10;;;3.00;99.90;;;;;;5095733;28;20024;-82
2022/02/18 04:50:27;;;;;;;16.42;11.40;;;3.00;99.90;;;;;;5094588;28;20024;-81
2022/02/18 04:52:53;;;;;;;20.02;12.30;;;3.00;99.90;;;;;;5094540;28;20028;-81
2022/02/18 04:55:19;;;;;;;12.55;9.18;;;3.00;99.90;;;;;;5093646;28;20032;-82
2022/02/18 04:57:46;;;;;;;19.30;13.45;;;2.90;99.90;;;;;;5093850;28;20088;-81
2022/02/18 05:00:13;;;;;;;19.58;12.80;;;2.90;99.90;;;;;;5092448;28;20568;-81
2022/02/18 05:02:39;;;;;;;19.60;13.00;;;2.90;99.90;;;;;;5102261;28;20035;-84
2022/02/18 05:05:05;;;;;;;16.00;13.13;;;2.90;99.90;;;;;;5111096;28;20490;-80
2022/02/18 05:07:31;;;;;;;13.30;10.55;;;3.00;99.90;;;;;;5102741;28;20027;-83
2022/02/18 05:09:56;;;;;;;20.75;13.48;;;2.90;99.90;;;;;;5103787;28;20073;-82
2022/02/18 05:12:22;;;;;;;19.75;12.55;;;2.90;99.90;;;;;;5093640;28;20020;-81
2022/02/18 05:14:51;;;;;;;20.33;12.15;;;3.00;99.90;;;;;;5092403;28;20151;-81
2022/02/18 05:17:17;;;;;;;15.65;11.52;;;3.00;99.90;;;;;;5094533;28;20083;-81
2022/02/18 05:19:43;;;;;;;17.27;12.38;;;3.00;99.90;;;;;;5101554;28;20058;-81
2022/02/18 05:22:08;;;;;;;17.50;12.02;;;3.00;99.90;;;;;;5097604;28;20131;-83
2022/02/18 05:24:34;;;;;;;24.88;14.40;;;3.00;99.90;;;;;;5094474;28;20020;-81
2022/02/18 05:27:00;;;;;;;18.67;13.77;;;3.00;99.90;;;;;;5094274;28;20023;-81
2022/02/18 05:29:26;;;;;;;23.30;14.18;;;3.10;99.90;;;;;;5094544;28;20024;-81
2022/02/18 05:31:51;;;;;;;21.10;14.25;;;3.10;99.90;;;;;;5092852;28;20021;-82
2022/02/18 05:34:17;;;;;;;19.70;13.63;;;3.00;99.90;;;;;;5092642;28;20042;-81
2022/02/18 05:36:43;;;;;;;19.33;13.90;;;3.00;99.90;;;;;;5092797;28;20389;-81
2022/02/18 05:39:09;;;;;;;21.80;13.85;;;3.00;99.90;;;;;;5093083;28;20051;-83
2022/02/18 05:41:34;;;;;;;22.25;15.00;;;3.00;99.90;;;;;;5092854;28;20077;-82
2022/02/18 05:44:00;;;;;;;22.35;14.90;;;3.00;99.90;;;;;;5093388;28;20028;-81
2022/02/18 05:46:26;;;;;;;27.67;14.25;;;3.10;99.90;;;;;;5093912;28;20017;-82
2022/02/18 05:48:52;;;;;;;22.02;15.18;;;3.10;99.90;;;;;;5093778;28;20036;-82
2022/02/18 05:51:18;;;;;;;26.00;15.70;;;3.10;99.90;;;;;;5093902;28;20027;-80
2022/02/18 05:53:44;;;;;;;16.88;12.65;;;3.10;99.90;;;;;;5093348;28;20044;-82
2022/02/18 05:56:09;;;;;;;23.67;13.93;;;3.10;99.90;;;;;;5093545;28;20016;-83
2022/02/18 05:58:35;;;;;;;14.38;11.18;;;3.10;99.90;;;;;;5093626;28;20334;-83
2022/02/18 06:01:01;;;;;;;18.17;13.10;;;3.10;99.90;;;;;;5092145;28;20128;-81
2022/02/18 06:03:27;;;;;;;15.55;12.35;;;3.00;99.90;;;;;;5095820;28;20104;-81
2022/02/18 06:05:52;;;;;;;16.05;11.25;;;3.00;99.90;;;;;;5104140;28;20109;-84
2022/02/18 06:08:18;;;;;;;13.75;11.55;;;3.00;99.90;;;;;;5105204;28;20028;-82
2022/02/18 06:10:44;;;;;;;15.20;11.75;;;3.00;99.90;;;;;;5101430;28;20024;-83
2022/02/18 06:13:10;;;;;;;17.98;10.65;;;3.00;99.90;;;;;;5114813;28;20410;-85
2022/02/18 06:15:35;;;;;;;16.15;10.63;;;3.00;99.90;;;;;;5114100;28;20090;-83
2022/02/18 06:18:01;;;;;;;15.88;12.13;;;3.00;99.90;;;;;;5113637;28;20065;-83
2022/02/18 06:20:27;;;;;;;11.38;9.15;;;3.00;99.90;;;;;;5114521;28;20051;-82
2022/02/18 06:22:53;;;;;;;15.63;11.48;;;3.10;99.90;;;;;;5114303;28;20039;-83
2022/02/18 06:25:19;;;;;;;14.35;9.35;;;3.00;99.90;;;;;;5113552;28;20453;-79
2022/02/18 06:27:45;;;;;;;14.50;8.82;;;3.00;99.90;;;;;;5114603;28;20046;-87
2022/02/18 06:30:11;;;;;;;11.40;7.63;;;3.00;99.90;;;;;;5115712;28;20433;-89
2022/02/18 06:32:37;;;;;;;14.68;11.07;;;3.00;99.90;;;;;;5111142;28;20027;-89
2022/02/18 06:35:04;;;;;;;13.52;11.07;;;3.00;99.90;;;;;;5118222;28;20116;-88
2022/02/18 06:37:30;;;;;;;13.65;9.40;;;3.00;99.90;;;;;;5113770;28;20488;-85
2022/02/18 06:39:56;;;;;;;14.27;9.63;;;3.00;99.90;;;;;;5116215;28;20035;-89
2022/02/18 06:42:21;;;;;;;14.35;9.18;;;3.00;99.90;;;;;;5114637;28;20047;-86
2022/02/18 06:44:47;;;;;;;13.43;9.80;;;3.10;99.90;;;;;;5114331;28;20024;-84
2022/02/18 06:47:13;;;;;;;11.68;9.13;;;3.10;99.90;;;;;;5116270;28;20429;-86
2022/02/18 06:49:41;;;;;;;12.45;9.10;;;3.10;99.90;;;;;;5108268;28;20031;-85
2022/02/18 06:52:07;;;;;;;14.38;9.23;;;3.10;99.90;;;;;;5097426;28;20012;-85
2022/02/18 06:54:33;;;;;;;12.85;9.55;;;3.20;99.90;;;;;;5097018;28;20039;-85
2022/02/18 06:57:00;;;;;;;11.80;9.15;;;3.10;99.90;;;;;;5096961;28;20028;-85
2022/02/18 06:59:27;;;;;;;15.63;9.40;;;3.20;99.90;;;;;;5095382;28;20024;-85
2022/02/18 07:01:55;;;;;;;15.48;10.40;;;3.20;99.90;;;;;;5097193;28;20085;-85
2022/02/18 07:04:22;;;;;;;17.70;10.52;;;3.20;99.90;;;;;;5097889;28;20016;-85
2022/02/18 07:06:48;;;;;;;15.27;10.95;;;3.20;99.90;;;;;;5098830;28;20411;-84
2022/02/18 07:09:15;;;;;;;16.48;10.80;;;3.20;99.90;;;;;;5117741;28;20084;-86
2022/02/18 07:11:41;;;;;;;14.23;9.63;;;3.30;99.90;;;;;;5112090;28;20028;-84
2022/02/18 07:14:09;;;;;;;17.83;12.48;;;3.30;99.90;;;;;;5107640;28;20042;-86
2022/02/18 07:16:36;;;;;;;14.43;11.32;;;3.40;99.90;;;;;;5098214;28;20024;-86
2022/02/18 07:19:02;;;;;;;16.58;11.77;;;3.40;99.90;;;;;;5097430;28;20056;-87
2022/02/18 07:21:28;;;;;;;18.10;11.88;;;3.40;99.90;;;;;;5096947;28;20354;-85
2022/02/18 07:23:54;;;;;;;12.48;8.35;;;3.40;99.90;;;;;;5097465;28;20060;-86
2022/02/18 07:26:27;;;;;;;13.75;9.90;;;3.40;99.90;;;;;;5096937;28;20115;-86
2022/02/18 07:28:53;;;;;;;18.08;10.98;;;3.40;99.90;;;;;;5106976;28;20493;-85
2022/02/18 07:31:19;;;;;;;17.95;12.07;;;3.40;99.90;;;;;;5098933;28;20028;-84
2022/02/18 07:33:44;;;;;;;16.10;11.00;;;3.40;99.90;;;;;;5097825;28;20032;-86
2022/02/18 07:36:10;;;;;;;14.73;9.95;;;3.50;99.90;;;;;;5098771;28;20027;-81
2022/02/18 07:38:37;;;;;;;7.30;5.30;;;3.50;99.90;;;;;;5098668;28;20031;-85
2022/02/18 07:41:03;;;;;;;6.50;5.32;;;3.30;99.90;;;;;;5099547;28;20077;-82
2022/02/18 07:43:35;;;;;;;8.40;5.35;;;3.10;99.90;;;;;;5075199;28;20432;-87
2022/02/18 07:46:02;;;;;;;7.53;4.88;;;3.10;99.90;;;;;;5077733;28;20095;-86
2022/02/18 07:48:28;;;;;;;7.22;4.80;;;3.10;99.90;;;;;;5076210;28;20107;-87
2022/02/18 07:50:54;;;;;;;5.85;4.97;;;3.10;99.90;;;;;;5074902;28;20481;-86
2022/02/18 07:53:20;;;;;;;7.72;4.65;;;3.20;99.90;;;;;;5075867;28;20040;-86
2022/02/18 07:55:46;;;;;;;6.45;3.78;;;3.30;99.90;;;;;;5075022;28;20068;-85
2022/02/18 07:58:12;;;;;;;6.15;3.38;;;3.30;99.90;;;;;;5072193;28;20083;-84
2022/02/18 08:00:38;;;;;;;5.43;3.70;;;3.20;99.90;;;;;;5074887;28;20028;-87
2022/02/18 08:03:04;;;;;;;8.15;3.78;;;3.20;99.90;;;;;;5075902;28;20483;-87
2022/02/18 08:05:30;;;;;;;3.55;2.55;;;3.20;99.90;;;;;;5078410;28;20383;-85
2022/02/18 08:07:58;;;;;;;4.43;3.35;;;3.30;99.90;;;;;;5077976;28;20099;-85
2022/02/18 08:10:27;;;;;;;4.55;2.35;;;3.30;99.90;;;;;;5076411;28;20029;-86
2022/02/18 08:12:53;;;;;;;5.18;2.75;;;3.30;99.90;;;;;;5082265;28;20043;-87
2022/02/18 08:15:19;;;;;;;8.00;2.40;;;3.20;99.90;;;;;;5130814;28;20103;-87
2022/02/18 08:17:45;;;;;;;4.47;2.60;;;3.20;99.90;;;;;;5138019;28;20029;-87
2022/02/18 08:20:12;;;;;;;4.63;3.05;;;3.10;99.90;;;;;;5134266;28;20108;-87
2022/02/18 08:22:38;;;;;;;3.25;2.53;;;3.10;99.90;;;;;;5120095;28;20019;-86
2022/02/18 08:25:07;;;;;;;6.75;3.05;;;3.30;99.90;;;;;;5118188;28;20032;-85
2022/02/18 08:27:33;;;;;;;4.68;2.97;;;3.30;99.90;;;;;;5117878;28;20419;-87
2022/02/18 08:29:58;;;;;;;3.83;3.05;;;3.40;99.90;;;;;;5115938;28;20023;-87
2022/02/18 08:32:24;;;;;;;9.25;3.00;;;3.60;99.90;;;;;;5116419;28;20115;-86
2022/02/18 08:34:50;;;;;;;3.53;2.80;;;3.60;99.90;;;;;;5114180;28;20401;-86
2022/02/18 08:37:16;;;;;;;4.63;2.67;;;3.70;99.90;;;;;;5116460;28;20026;-86
2022/02/18 08:39:42;;;;;;;5.00;3.58;;;3.70;99.90;;;;;;5114805;28;20023;-85
2022/02/18 08:42:08;;;;;;;4.15;3.00;;;3.70;99.90;;;;;;5114941;28;20020;-87
2022/02/18 08:44:36;;;;;;;6.35;3.55;;;3.70;99.90;;;;;;5114493;28;20130;-85
2022/02/18 08:47:03;;;;;;;4.70;3.30;;;3.80;99.90;;;;;;5116919;28;20100;-85
2022/02/18 08:49:28;;;;;;;3.33;2.85;;;3.90;99.90;;;;;;5109432;28;20020;-89
2022/02/18 08:51:54;;;;;;;7.25;3.53;;;4.00;99.90;;;;;;5097173;28;20028;-87
2022/02/18 08:54:21;;;;;;;3.92;3.35;;;4.00;99.90;;;;;;5096089;28;20146;-86
2022/02/18 08:56:47;;;;;;;5.63;4.50;;;4.20;99.90;;;;;;5096283;28;20027;-85
2022/02/18 08:59:13;;;;;;;8.57;4.68;;;4.20;99.90;;;;;;5097433;28;20036;-86
2022/02/18 09:01:40;;;;;;;6.20;4.75;;;4.20;99.90;;;;;;5103273;28;20047;-86
2022/02/18 09:04:05;;;;;;;7.90;5.00;;;4.30;99.90;;;;;;5113684;28;20064;-87
2022/02/18 09:06:32;;;;;;;7.13;4.95;;;4.30;99.90;;;;;;5112640;28;20046;-85
2022/02/18 09:08:58;;;;;;;8.60;5.05;;;4.40;99.90;;;;;;5107719;28;20024;-86
2022/02/18 09:11:24;;;;;;;11.60;5.15;;;4.60;99.90;;;;;;5126828;28;20020;-86
2022/02/18 09:13:50;;;;;;;11.48;6.40;;;4.80;99.90;;;;;;5118556;28;20185;-87
2022/02/18 09:16:17;;;;;;;9.60;4.93;;;4.80;99.90;;;;;;5115262;28;20048;-88
2022/02/18 09:18:43;;;;;;;;;;;4.90;99.90;;;;;;5117688;28;20035;-85
2022/02/18 09:21:09;;;;;;;7.60;4.25;;;4.90;99.90;;;;;;5117048;28;19907;-84
2022/02/18 09:23:36;;;;;;;5.65;3.40;;;5.20;99.90;;;;;;5117157;28;20095;-85
2022/02/18 09:26:02;;;;;;;5.30;3.92;;;5.70;99.90;;;;;;5110569;28;20027;-84
2022/02/18 09:28:28;;;;;;;4.88;3.60;;;5.90;99.90;;;;;;5098537;28;20178;-85
2022/02/18 09:30:55;;;;;;;5.45;3.30;;;5.90;99.90;;;;;;5099031;28;20545;-85
2022/02/18 09:33:22;;;;;;;4.18;2.85;;;5.80;99.60;;;;;;5100240;28;20016;-87
2022/02/18 09:35:49;;;;;;;6.15;3.20;;;5.80;99.10;;;;;;5099554;28;20119;-89
2022/02/18 09:38:16;;;;;;;4.93;3.20;;;5.80;98.60;;;;;;5095879;28;20107;-87
2022/02/18 09:40:42;;;;;;;7.60;3.47;;;6.20;99.60;;;;;;5095311;28;20039;-85
2022/02/18 09:43:09;;;;;;;2.47;2.10;;;7.80;99.60;;;;;;5105471;28;20389;-87
2022/02/18 09:45:35;;;;;;;2.85;2.45;;;9.00;95.30;;;;;;5115159;28;20027;-86
2022/02/18 09:48:01;;;;;;;5.22;2.88;;;9.90;94.00;;;;;;5115468;28;20016;-88
2022/02/18 09:50:28;;;;;;;4.93;2.95;;;11.20;91.10;;;;;;5116882;28;20030;-88
2022/02/18 09:52:54;;;;;;;4.38;2.03;;;12.40;86.20;;;;;;5095845;28;20449;-87
2022/02/18 09:55:20;;;;;;;5.53;2.75;;;12.20;77.60;;;;;;5113643;28;20327;-88
2022/02/18 09:57:53;;;;;;;2.75;2.05;;;11.10;76.60;;;;;;5118232;27;20023;-86
2022/02/18 10:00:20;;;;;;;2.33;1.90;;;9.80;78.70;;;;;;5113053;28;20028;-87
2022/02/18 10:02:48;;;;;;;5.15;2.10;;;9.00;81.60;;;;;;5114924;28;20047;-86
2022/02/18 10:05:15;;;;;;;4.63;2.10;;;8.50;83.20;;;;;;5115121;28;20012;-89
2022/02/18 10:08:10;;;;;;;3.92;2.78;;;8.70;84.10;;;;;;5116706;28;20031;-88
2022/02/18 10:10:40;;;;;;;4.75;2.75;;;9.00;83.30;;;;;;5114492;28;20124;-85
2022/02/18 10:13:30;;;;;;;3.85;2.13;;;9.00;82.50;;;;;;5094334;28;20473;-87
2022/02/18 10:15:58;;;;;;;5.22;4.20;;;8.70;81.50;;;;;;5092393;28;20131;-88
2022/02/18 10:18:24;;;;;;;;;;;8.10;82.60;;;;;;5094856;28;20421;-86
2022/02/18 10:20:55;;;;;;;5.82;3.92;;;7.80;84.40;;;;;;5095248;28;20066;-89
2022/02/18 10:23:22;;;;;;;4.30;2.83;;;7.40;84.70;;;;;;5100299;28;20028;-85
2022/02/18 10:25:52;;;;;;;4.35;2.83;;;6.90;86.30;;;;;;5112215;28;20028;-88
2022/02/18 10:28:21;;;;;;;2.03;1.70;;;6.50;88.00;;;;;;5111762;28;20016;-87
2022/02/18 10:30:49;;;;;;;4.25;2.83;;;5.90;89.60;;;;;;5108281;28;20401;-87
2022/02/18 10:33:22;;;;;;;6.18;2.28;;;5.20;90.90;;;;;;5099630;28;20361;-85
2022/02/18 10:35:56;;;;;;;2.90;2.00;;;4.80;91.90;;;;;;5098455;28;20032;-86
2022/02/18 10:38:37;;;;;;;2.72;1.88;;;4.30;92.90;;;;;;5094800;28;20103;-87
2022/02/18 10:41:29;;;;;;;2.67;1.88;;;4.10;93.80;;;;;;5094213;28;20121;-85
2022/02/18 10:44:02;;;;;;;5.43;2.58;;;4.10;94.60;;;;;;5097981;28;20031;-84
2022/02/18 10:46:55;;;;;;;3.90;1.73;;;4.20;95.00;;;;;;5096495;28;20494;-88
2022/02/18 10:49:22;;;;;;;3.22;1.85;;;4.30;94.80;;;;;;5111049;28;20026;-87
2022/02/18 10:51:50;;;;;;;2.25;1.65;;;4.30;94.40;;;;;;5127537;28;20385;-86
2022/02/18 10:54:16;;;;;;;;;;;4.30;94.40;;;;;;5117349;28;20034;-85
2022/02/18 10:56:42;;;;;;;3.03;1.92;;;4.30;94.10;;;;;;5115616;28;19926;-87
2022/02/18 10:59:08;;;;;;;4.45;3.17;;;4.30;94.00;;;;;;5107814;28;20047;-87
2022/02/18 11:01:43;;;;;;;5.20;2.40;;;4.30;93.90;;;;;;5105544;28;20032;-86
2022/02/18 11:04:11;;;;;;;8.70;5.45;;;4.50;93.90;;;;;;5099977;28;20027;-88
2022/02/18 11:06:37;;;;;;;4.82;2.42;;;4.70;94.10;;;;;;5092113;28;20020;-87
2022/02/18 11:09:05;;;;;;;3.53;2.05;;;4.80;93.10;;;;;;5091972;28;20027;-87
2022/02/18 11:11:39;;;;;;;3.85;2.45;;;4.80;93.10;;;;;;5095415;28;20031;-84
2022/02/18 11:14:11;;;;;;;8.52;1.85;;;5.00;93.30;;;;;;5094400;28;20249;-87
2022/02/18 11:16:56;;;;;;;3.80;1.80;;;5.10;92.50;;;;;;5092749;28;20055;-86
2022/02/18 11:19:23;;;;;;;1.83;1.35;;;5.10;91.50;;;;;;5093822;28;20016;-88
2022/02/18 11:21:49;;;;;;;3.28;1.98;;;5.00;91.30;;;;;;5095952;28;20336;-86
2022/02/18 11:24:21;;;;;;;2.95;1.77;;;5.00;91.20;;;;;;5094723;28;20056;-86
2022/02/18 11:26:48;;;;;;;2.13;1.15;;;5.00;91.10;;;;;;5092468;28;20027;-87
2022/02/18 11:29:14;;;;;;;2.67;1.52;;;4.90;90.90;;;;;;5093096;28;20047;-87
2022/02/18 11:31:58;;;;;;;2.67;1.58;;;4.90;90.90;;;;;;5093465;28;20032;-87
2022/02/18 11:34:54;;;;;;;5.50;2.20;;;5.20;91.10;;;;;;5094688;28;20213;-86
2022/02/18 11:37:54;;;;;;;6.30;4.30;;;5.30;90.40;;;;;;5097413;28;20028;-84
2022/02/18 11:40:42;;;;;;;2.38;1.50;;;5.30;89.80;;;;;;5100363;28;20073;-87
2022/02/18 11:43:27;;;;;;;2.58;1.67;;;5.30;88.90;;;;;;5098419;28;20050;-90
2022/02/18 11:45:58;;;;;;;2.58;1.55;;;5.40;89.30;;;;;;5097892;28;20028;-84
2022/02/18 11:48:46;;;;;;;2.00;1.20;;;5.30;88.70;;;;;;5117497;28;20024;-87
2022/02/18 11:51:25;;;;;;;7.00;2.80;;;5.20;87.60;;;;;;5119530;28;20020;-90
2022/02/18 11:53:59;;;;;;;3.92;1.90;;;5.20;87.70;;;;;;5118752;28;20067;-85
2022/02/18 11:56:39;;;;;;;1.80;1.25;;;5.20;86.40;;;;;;5118997;28;20026;-87
2022/02/18 11:59:05;;;;;;;3.63;1.73;;;5.20;85.80;;;;;;5096822;28;20061;-88
2022/02/18 12:02:04;;;;;;;1.48;0.90;;;5.10;84.90;;;;;;5098383;28;20016;-85
2022/02/18 12:04:32;;;;;;;4.05;1.38;;;5.00;82.50;;;;;;5096894;28;20442;-87
2022/02/18 12:07:25;;;;;;;3.55;1.35;;;4.80;81.60;;;;;;5098305;28;20045;-87
2022/02/18 12:09:50;;;;;;;6.30;1.55;;;4.90;81.20;;;;;;5099256;28;20044;-87
2022/02/18 12:12:34;;;;;;;3.72;1.42;;;4.80;79.70;;;;;;5103497;28;20494;-87
2022/02/18 12:15:22;;;;;;;2.47;1.55;;;4.90;79.60;;;;;;5103468;28;20113;-88
2022/02/18 12:17:57;;;;;;;4.82;3.13;;;5.00;79.20;;;;;;5096909;28;20016;-89
2022/02/18 12:20:29;;;;;;;8.52;2.50;;;5.00;78.80;;;;;;5096169;28;20358;-87
2022/02/18 12:22:56;;;;;;;5.85;1.50;;;4.90;78.60;;;;;;5095877;28;20052;-89
2022/02/18 12:25:24;;;;;;;5.70;2.92;;;4.90;78.50;;;;;;5096962;28;20035;-86
2022/02/18 12:27:51;;;;;;;;;;;4.90;78.60;;;;;;5098969;28;20024;-84
2022/02/18 12:30:23;;;;;;;1.67;1.15;;;4.80;79.60;;;;;;5103301;28;19971;-88
2022/02/18 12:32:52;;;;;;;5.63;2.45;;;4.70;79.40;;;;;;5105840;28;20049;-85
2022/02/18 12:35:27;;;;;;;3.15;1.77;;;4.70;79.60;;;;;;5111415;28;20032;-86
2022/02/18 12:37:54;;;;;;;2.53;1.30;;;4.80;79.60;;;;;;5107843;28;20050;-86
2022/02/18 12:40:20;;;;;;;1.83;1.20;;;4.60;78.70;;;;;;5102348;28;20070;-84
2022/02/18 12:42:58;;;;;;;5.88;1.50;;;4.50;78.90;;;;;;5103857;28;20253;-88
2022/02/18 12:45:39;;;;;;;2.03;1.20;;;4.50;79.20;;;;;;5102753;28;20020;-87
2022/02/18 12:48:12;;;;;;;4.93;1.70;;;4.50;79.90;;;;;;5099243;28;20482;-87
2022/02/18 12:50:45;;;;;;;2.67;1.80;;;4.50;79.90;;;;;;5115910;28;20028;-86